Time;durP1;ratioP1;P1;durP2;ratioP2;P2;SDS_P1;SDS_P2;PMS_P1;PMS_P2;Temp;Humidity;BMP_temperature;BMP_pressure;BME280_temperature;BME280_humidity;BME280_pressure;Samples;Min_cycle;Max_cycle;Signal;HPM_P1;HPM_P2
2023/01/13 00:00:21;;;;;;;0.60;0.60;;;;;;;8.18;70.87;96592.59;29395;208;63004;-57
2023/01/13 00:00:53;;;;;;;0.50;0.50;;;;;;;8.14;70.91;96602.34;29395;204;63009;-57
2023/01/13 00:01:26;;;;;;;0.50;0.50;;;;;;;8.15;71.16;96609.37;29395;268;63005;-61
2023/01/13 00:01:59;;;;;;;0.50;0.50;;;;;;;8.25;70.45;96603.88;29394;218;64014;-62
2023/01/13 00:02:32;;;;;;;0.52;0.52;;;;;;;8.37;70.20;96590.78;29395;214;63005;-60
2023/01/13 00:03:03;;;;;;;0.50;0.50;;;;;;;8.38;70.17;96578.87;29394;274;64013;-58
2023/01/13 00:03:35;;;;;;;0.50;0.50;;;;;;;8.34;70.25;96592.16;29395;241;63005;-57
2023/01/13 00:04:10;;;;;;;0.50;0.50;;;;;;;8.30;70.41;96584.91;29394;204;64013;-57
2023/01/13 00:04:41;;;;;;;0.50;0.50;;;;;;;8.31;70.11;96589.22;29394;271;64009;-60
2023/01/13 00:05:12;;;;;;;0.50;0.50;;;;;;;8.29;70.37;96586.00;29395;212;63009;-57
2023/01/13 00:05:43;;;;;;;0.50;0.50;;;;;;;8.27;70.43;96593.59;29395;213;63004;-57
2023/01/13 00:06:20;;;;;;;0.50;0.50;;;;;;;8.23;70.96;96590.66;29395;220;63024;-56
2023/01/13 00:06:51;;;;;;;0.50;0.50;;;;;;;8.21;71.00;96594.72;29395;221;63004;-58
2023/01/13 00:07:23;;;;;;;0.50;0.50;;;;;;;8.20;70.95;96596.63;29395;206;63009;-58
2023/01/13 00:07:54;;;;;;;0.50;0.50;;;;;;;8.21;70.81;96586.63;29394;223;64008;-66
2023/01/13 00:08:25;;;;;;;0.50;0.50;;;;;;;8.19;71.21;96596.91;29394;209;64014;-57
2023/01/13 00:08:57;;;;;;;0.50;0.50;;;;;;;8.17;71.01;96596.38;29395;226;63005;-57
2023/01/13 00:09:28;;;;;;;0.50;0.50;;;;;;;8.14;71.06;96602.34;29394;245;64014;-57
2023/01/13 00:09:59;;;;;;;0.50;0.50;;;;;;;8.12;71.39;96591.00;29395;318;63005;-55
2023/01/13 00:10:34;;;;;;;0.50;0.50;;;;;;;8.09;71.53;96595.09;29395;276;63009;-59
2023/01/13 00:11:09;;;;;;;0.50;0.50;;;;;;;8.10;71.91;96585.91;29395;243;63005;-55
2023/01/13 00:11:41;;;;;;;0.50;0.50;;;;;;;8.11;71.68;96584.00;29395;226;63009;-57
2023/01/13 00:12:14;;;;;;;0.50;0.50;;;;;;;8.15;71.69;96590.44;29395;263;63005;-56
2023/01/13 00:12:45;;;;;;;0.50;0.50;;;;;;;8.17;71.49;96586.37;29395;239;63009;-57
2023/01/13 00:13:25;;;;;;;0.50;0.50;;;;;;;8.27;70.97;96574.66;29395;197;63004;-56
2023/01/13 00:13:56;;;;;;;0.50;0.50;;;;;;;8.28;70.80;96581.69;29394;235;64013;-56
2023/01/13 00:14:29;;;;;;;0.50;0.50;;;;;;;8.29;70.76;96577.91;29395;221;63004;-59
2023/01/13 00:15:00;;;;;;;0.50;0.50;;;;;;;8.29;71.29;96575.19;29395;206;63008;-57
2023/01/13 00:15:32;;;;;;;0.50;0.50;;;;;;;8.33;70.92;96581.63;29395;199;63004;-62
2023/01/13 00:16:07;;;;;;;0.50;0.50;;;;;;;8.42;70.53;96574.53;29395;229;63009;-57
2023/01/13 00:16:38;;;;;;;0.50;0.50;;;;;;;8.40;70.22;96563.19;29395;204;63005;-57
2023/01/13 00:17:09;;;;;;;0.50;0.50;;;;;;;8.37;70.65;96571.87;29395;222;63009;-56
2023/01/13 00:17:41;;;;;;;0.50;0.50;;;;;;;8.29;70.61;96577.91;29394;213;64009;-61
2023/01/13 00:18:12;;;;;;;0.50;0.50;;;;;;;8.35;70.42;96572.16;29395;218;63009;-56
2023/01/13 00:18:44;;;;;;;0.50;0.50;;;;;;;8.33;70.36;96568.94;29395;236;63005;-57
2023/01/13 00:19:15;;;;;;;0.50;0.50;;;;;;;8.30;70.85;96568.69;29395;218;63020;-56
2023/01/13 00:19:47;;;;;;;0.50;0.50;;;;;;;8.28;70.97;96568.19;29395;212;63005;-57
2023/01/13 00:20:18;;;;;;;0.50;0.50;;;;;;;8.26;70.92;96567.66;29395;206;63009;-58
2023/01/13 00:21:07;;;;;;;0.50;0.50;;;;;;;8.27;70.81;96569.25;29395;210;63011;-57
2023/01/13 00:21:38;;;;;;;0.50;0.50;;;;;;;8.29;70.63;96572.50;29395;198;63009;-56
2023/01/13 00:22:11;;;;;;;0.50;0.50;;;;;;;8.26;71.02;96567.66;29395;295;63004;-57
2023/01/13 00:22:42;;;;;;;0.50;0.50;;;;;;;8.26;70.92;96564.94;29394;198;64013;-56
2023/01/13 00:23:14;;;;;;;0.50;0.50;;;;;;;8.20;71.48;96568.78;29395;275;63004;-57
2023/01/13 00:23:46;;;;;;;0.50;0.50;;;;;;;8.18;71.58;96577.19;29395;221;63009;-60
2023/01/13 00:24:18;;;;;;;0.50;0.50;;;;;;;8.21;71.35;96565.00;29395;210;63005;-55
2023/01/13 00:24:49;;;;;;;0.50;0.50;;;;;;;8.21;71.32;96560.41;29395;246;63009;-57
2023/01/13 00:25:20;;;;;;;0.50;0.50;;;;;;;8.23;71.28;96573.63;29395;240;63005;-58
2023/01/13 00:25:57;;;;;;;0.50;0.50;;;;;;;8.21;71.19;96563.09;29395;205;63009;-55
2023/01/13 00:26:29;;;;;;;0.50;0.50;;;;;;;8.25;70.87;96560.62;29395;215;63005;-57
2023/01/13 00:27:00;;;;;;;0.50;0.50;;;;;;;8.26;70.75;96564.94;29395;227;63009;-56
2023/01/13 00:27:33;;;;;;;0.50;0.50;;;;;;;8.24;71.19;96565.22;29395;202;63005;-58
2023/01/13 00:28:04;;;;;;;0.50;0.50;;;;;;;8.29;71.16;96564.37;29394;250;64013;-58
2023/01/13 00:28:36;;;;;;;0.50;0.50;;;;;;;8.28;70.90;96547.34;29395;199;63004;-56
2023/01/13 00:29:07;;;;;;;0.50;0.50;;;;;;;8.28;70.93;96560.06;29395;240;63009;-59
2023/01/13 00:29:38;;;;;;;0.50;0.50;;;;;;;8.27;70.98;96559.25;29395;202;63004;-56
2023/01/13 00:30:11;;;;;;;0.50;0.50;;;;;;;8.27;70.76;96561.16;29395;209;63008;-59
2023/01/13 00:30:42;;;;;;;0.50;0.50;;;;;;;8.31;70.81;96559.50;29395;205;63004;-60
2023/01/13 00:31:18;;;;;;;0.50;0.50;;;;;;;8.34;70.80;96553.53;29395;207;63009;-63
2023/01/13 00:31:50;;;;;;;0.50;0.50;;;;;;;8.31;70.38;96554.09;29395;206;63008;-56
2023/01/13 00:32:21;;;;;;;0.50;0.50;;;;;;;8.30;70.71;96555.19;29395;203;63009;-58
2023/01/13 00:32:52;;;;;;;0.50;0.50;;;;;;;8.34;70.50;96553.53;29395;223;63005;-57
2023/01/13 00:33:24;;;;;;;0.50;0.50;;;;;;;8.29;70.45;96550.88;29394;279;64013;-58
2023/01/13 00:33:57;;;;;;;0.50;0.50;;;;;;;8.31;70.74;96548.69;29395;246;63000;-59
2023/01/13 00:34:29;;;;;;;0.50;0.50;;;;;;;8.37;70.35;96547.53;29395;221;63009;-68
2023/01/13 00:35:00;;;;;;;0.50;0.50;;;;;;;8.47;70.01;96541.22;29395;227;63005;-56
2023/01/13 00:35:31;;;;;;;0.50;0.50;;;;;;;8.49;69.80;96550.66;29395;231;63009;-57
2023/01/13 00:36:08;;;;;;;0.50;0.50;;;;;;;8.46;70.05;96553.94;29395;220;63004;-57
2023/01/13 00:36:39;;;;;;;0.70;0.70;;;;;;;8.39;70.16;96545.34;29395;222;63009;-56
2023/01/13 00:37:13;;;;;;;0.50;0.50;;;;;;;8.39;70.35;96548.06;29395;220;63004;-58
2023/01/13 00:37:44;;;;;;;0.50;0.50;;;;;;;8.36;70.08;96540.53;29395;235;63008;-56
2023/01/13 00:38:15;;;;;;;0.50;0.50;;;;;;;8.32;70.40;96550.25;29395;218;63004;-56
2023/01/13 00:38:48;;;;;;;0.50;0.50;;;;;;;8.29;70.68;96545.47;29394;261;64014;-56
2023/01/13 00:39:20;;;;;;;0.50;0.50;;;;;;;8.28;70.82;96551.94;29395;250;63005;-58
2023/01/13 00:39:52;;;;;;;0.50;0.50;;;;;;;8.30;70.39;96547.87;29395;227;63009;-56
2023/01/13 00:40:23;;;;;;;0.50;0.50;;;;;;;8.29;70.81;96548.16;29395;221;63005;-56
2023/01/13 00:41:02;;;;;;;0.50;0.50;;;;;;;8.24;70.82;96548.22;29395;215;63009;-54
2023/01/13 00:43:21;;;;;;;0.50;0.50;;;;;;;8.22;71.09;96534.19;29395;197;63005;-56
2023/01/13 00:43:23;;;;;;;0.50;0.50;;;;;;;8.36;70.42;96551.34;29394;381;64009;-58
2023/01/13 00:43:54;;;;;;;0.50;0.50;;;;;;;8.40;70.28;96541.56;29395;316;63009;-69
2023/01/13 00:44:25;;;;;;;0.52;0.52;;;;;;;8.48;69.54;96527.41;29395;214;63004;-59
2023/01/13 00:44:57;;;;;;;0.50;0.50;;;;;;;8.45;69.66;96541.50;29395;221;63009;-58
2023/01/13 00:45:29;;;;;;;0.50;0.50;;;;;;;8.43;69.77;96535.59;29394;204;64004;-57
2023/01/13 00:46:02;;;;;;;0.50;0.50;;;;;;;8.39;69.99;96539.94;29395;202;63009;-65
2023/01/13 00:46:34;;;;;;;0.70;0.70;;;;;;;8.50;69.80;96536.06;29395;251;63005;-59
2023/01/13 00:47:09;;;;;;;0.50;0.50;;;;;;;8.51;69.43;96526.84;29395;260;63013;-57
2023/01/13 00:47:40;;;;;;;0.50;0.50;;;;;;;8.45;69.76;96538.81;29394;211;64009;-56
2023/01/13 00:48:12;;;;;;;0.50;0.50;;;;;;;8.43;69.70;96532.87;29395;225;63009;-60
2023/01/13 00:48:44;;;;;;;0.50;0.50;;;;;;;8.43;69.89;96530.19;29395;310;63005;-57
2023/01/13 00:49:16;;;;;;;0.50;0.50;;;;;;;8.39;69.86;96523.72;29395;293;63009;-57
2023/01/13 00:49:47;;;;;;;0.50;0.50;;;;;;;8.36;70.22;96540.53;29395;215;63005;-57
2023/01/13 00:50:18;;;;;;;0.50;0.50;;;;;;;8.40;69.85;96538.84;29395;275;63009;-56
2023/01/13 00:50:58;;;;;;;0.50;0.50;;;;;;;8.45;69.80;96533.41;29395;212;63010;-57
2023/01/13 00:51:29;;;;;;;0.50;0.50;;;;;;;8.44;69.89;96520.16;29394;199;64013;-58
2023/01/13 00:52:00;;;;;;;0.50;0.50;;;;;;;8.46;69.83;96516.09;29395;251;63004;-57
2023/01/13 00:52:32;;;;;;;0.50;0.50;;;;;;;8.44;69.64;96514.75;29395;197;63009;-56
2023/01/13 00:53:04;;;;;;;0.50;0.50;;;;;;;8.39;69.79;96523.72;29394;210;64004;-56
2023/01/13 00:53:37;;;;;;;0.50;0.50;;;;;;;8.34;70.28;96521.09;29394;236;64014;-55
2023/01/13 00:54:09;;;;;;;0.50;0.50;;;;;;;8.31;70.41;96521.66;29395;219;63005;-55
2023/01/13 00:54:43;;;;;;;0.50;0.50;;;;;;;8.28;70.26;96514.12;29395;219;63009;-55
2023/01/13 00:55:17;;;;;;;0.50;0.50;;;;;;;8.24;70.93;96526.59;29395;238;63009;-55
2023/01/13 00:55:49;;;;;;;0.50;0.50;;;;;;;8.24;70.77;96534.69;29395;198;63009;-55
2023/01/13 00:56:23;;;;;;;0.50;0.50;;;;;;;8.25;70.84;96520.91;29394;202;64009;-54
2023/01/13 00:56:54;;;;;;;0.50;0.50;;;;;;;8.26;70.79;96524.41;29394;231;64013;-59
2023/01/13 00:57:26;;;;;;;0.50;0.50;;;;;;;8.35;70.46;96522.69;29394;212;64009;-64
2023/01/13 00:58:04;;;;;;;0.50;0.50;;;;;;;8.44;69.77;96504.75;29395;256;63009;-56
2023/01/13 00:58:35;;;;;;;0.50;0.50;;;;;;;8.46;69.87;96516.09;29395;199;63004;-55
2023/01/13 00:59:11;;;;;;;0.50;0.50;;;;;;;8.46;69.66;96515.28;29394;197;64013;-55
2023/01/13 00:59:46;;;;;;;0.60;0.60;;;;;;;8.40;70.01;96515.34;29395;216;63004;-55
2023/01/13 01:00:19;;;;;;;0.50;0.50;;;;;;;8.38;70.04;96511.31;29395;252;63015;-56
2023/01/13 01:00:50;;;;;;;0.50;0.50;;;;;;;8.36;70.15;96508.09;29395;211;63004;-55
2023/01/13 01:01:23;;;;;;;0.50;0.50;;;;;;;8.38;70.17;96516.72;29395;218;63009;-63
2023/01/13 01:01:54;;;;;;;0.60;0.60;;;;;;;8.47;69.52;96512.28;29394;240;64009;-56
2023/01/13 01:02:26;;;;;;;0.50;0.50;;;;;;;8.52;69.56;96506.81;29394;232;64013;-56
2023/01/13 01:02:57;;;;;;;0.50;0.50;;;;;;;8.48;69.57;96500.38;29395;239;63005;-67
2023/01/13 01:03:29;;;;;;;0.50;0.50;;;;;;;8.47;69.77;96506.88;29394;258;64013;-58
2023/01/13 01:04:00;;;;;;;0.50;0.50;;;;;;;8.45;69.80;96509.06;29395;230;63005;-57
2023/01/13 01:04:31;;;;;;;0.50;0.50;;;;;;;8.44;69.77;96504.75;29395;202;63009;-54
2023/01/13 01:05:03;;;;;;;0.50;0.50;;;;;;;8.39;70.27;96507.50;29395;208;63004;-55
2023/01/13 01:05:35;;;;;;;0.50;0.50;;;;;;;8.40;69.82;96511.81;29395;212;63009;-54
2023/01/13 01:06:27;;;;;;;1.27;0.80;;;;;;;8.43;70.03;96513.97;29395;223;63004;-54
2023/01/13 01:06:59;;;;;;;0.50;0.50;;;;;;;8.41;70.06;96513.44;29417;209;63012;-55
2023/01/13 01:07:30;;;;;;;0.50;0.50;;;;;;;8.38;70.16;96514.00;29395;209;63004;-55
2023/01/13 01:08:01;;;;;;;0.50;0.50;;;;;;;8.37;70.07;96502.37;29395;216;63009;-57
2023/01/13 01:08:34;;;;;;;0.50;0.50;;;;;;;8.47;69.49;96503.37;29394;257;64009;-56
2023/01/13 01:09:06;;;;;;;0.50;0.50;;;;;;;8.54;69.47;96501.13;29395;274;63009;-56
2023/01/13 01:09:38;;;;;;;0.50;0.50;;;;;;;8.52;69.38;96511.44;29395;227;63005;-56
2023/01/13 01:10:10;;;;;;;0.50;0.50;;;;;;;8.51;69.43;96505.22;29395;209;63009;-56
2023/01/13 01:10:41;;;;;;;0.50;0.50;;;;;;;8.51;69.81;96505.22;29395;230;63005;-55
2023/01/13 01:11:16;;;;;;;0.50;0.50;;;;;;;8.49;69.54;96506.59;29395;219;63009;-56
2023/01/13 01:11:47;;;;;;;0.50;0.50;;;;;;;8.46;69.76;96507.97;29395;202;63005;-56
2023/01/13 01:12:19;;;;;;;0.50;0.50;;;;;;;8.45;69.77;96495.53;29395;209;63009;-55
2023/01/13 01:12:52;;;;;;;0.50;0.50;;;;;;;8.42;69.96;96509.63;29394;280;64009;-56
2023/01/13 01:13:23;;;;;;;0.50;0.50;;;;;;;8.49;69.46;96502.00;29395;267;63009;-66
2023/01/13 01:13:57;;;;;;;0.50;0.50;;;;;;;8.55;69.60;96500.03;29395;207;63004;-56
2023/01/13 01:14:28;;;;;;;0.50;0.50;;;;;;;8.53;69.45;96499.53;29396;202;63009;-55
2023/01/13 01:14:59;;;;;;;0.50;0.50;;;;;;;8.46;70.39;96507.16;29394;202;64008;-55
2023/01/13 01:15:30;;;;;;;0.60;0.60;;;;;;;8.44;69.75;96493.94;29395;208;63009;-55
2023/01/13 01:16:11;;;;;;;0.50;0.50;;;;;;;8.39;70.11;96494.00;29395;333;63005;-56
2023/01/13 01:16:42;;;;;;;;;;;;;;;8.38;70.24;96495.87;29996;982;5997;-56
2023/01/13 01:17:14;;;;;;;0.50;0.50;;;;;;;8.36;70.58;96502.69;29422;217;63027;-55
2023/01/13 01:17:45;;;;;;;0.50;0.50;;;;;;;8.35;70.23;96503.78;29395;241;63005;-57
2023/01/13 01:18:16;;;;;;;0.50;0.50;;;;;;;8.44;70.13;96493.94;29395;224;63009;-56
2023/01/13 01:18:50;;;;;;;0.50;0.50;;;;;;;8.45;69.81;96494.75;29395;217;63005;-55
2023/01/13 01:19:25;;;;;;;0.50;0.50;;;;;;;8.39;70.18;96497.50;29395;215;63009;-55
2023/01/13 01:19:56;;;;;;;0.60;0.60;;;;;;;8.37;70.48;96493.47;29395;255;63004;-55
2023/01/13 01:20:27;;;;;;;0.50;0.50;;;;;;;8.39;70.17;96492.09;29394;232;64013;-56
2023/01/13 01:21:00;;;;;;;0.50;0.50;;;;;;;8.38;69.92;96500.50;29395;329;63004;-57
2023/01/13 01:21:34;;;;;;;0.55;0.55;;;;;;;8.40;69.98;96501.81;29395;214;63009;-56
2023/01/13 01:22:05;;;;;;;0.50;0.50;;;;;;;8.46;69.76;96497.16;29395;226;63004;-57
2023/01/13 01:22:36;;;;;;;0.50;0.50;;;;;;;8.46;69.91;96504.47;29395;223;63008;-55
2023/01/13 01:23:07;;;;;;;0.50;0.50;;;;;;;8.45;69.87;96502.84;29395;220;63017;-55
2023/01/13 01:23:41;;;;;;;0.50;0.50;;;;;;;8.43;69.90;96495.03;29395;207;63009;-55
2023/01/13 01:24:15;;;;;;;0.50;0.50;;;;;;;8.43;69.96;96505.84;29395;218;63005;-55
2023/01/13 01:24:47;;;;;;;0.50;0.50;;;;;;;8.43;70.12;96502.34;29394;268;64013;-56
2023/01/13 01:25:19;;;;;;;0.50;0.50;;;;;;;8.39;70.13;96507.50;29395;253;63005;-56
2023/01/13 01:25:50;;;;;;;0.50;0.50;;;;;;;8.39;70.38;96512.91;29395;245;63009;-57
2023/01/13 01:26:23;;;;;;;0.50;0.50;;;;;;;8.42;70.38;96511.53;29395;220;63005;-56
2023/01/13 01:26:55;;;;;;;0.50;0.50;;;;;;;8.45;70.28;96503.66;29395;222;63009;-55
2023/01/13 01:27:26;;;;;;;0.50;0.50;;;;;;;8.47;69.91;96504.19;29395;260;63004;-54
2023/01/13 01:27:59;;;;;;;0.50;0.50;;;;;;;8.48;69.99;96502.28;29395;238;63027;-55
2023/01/13 01:28:30;;;;;;;0.52;0.52;;;;;;;8.52;69.73;96506.81;29394;198;64009;-59
2023/01/13 01:29:02;;;;;;;0.50;0.50;;;;;;;8.55;69.49;96505.44;29395;220;63009;-55
2023/01/13 01:29:34;;;;;;;0.50;0.50;;;;;;;8.54;69.46;96506.53;29395;208;63004;-54
2023/01/13 01:30:08;;;;;;;0.50;0.50;;;;;;;8.50;69.83;96513.62;29395;272;63008;-57
2023/01/13 01:30:39;;;;;;;0.50;0.50;;;;;;;8.57;69.45;96509.47;29395;358;63005;-54
2023/01/13 01:31:17;;;;;;;0.50;0.50;;;;;;;8.64;69.15;96509.94;29395;202;63009;-58
2023/01/13 01:31:49;;;;;;;0.50;0.50;;;;;;;8.68;68.76;96510.13;29395;208;63005;-55
2023/01/13 01:32:20;;;;;;;0.50;0.50;;;;;;;8.65;68.88;96508.84;29395;204;63009;-55
2023/01/13 01:32:51;;;;;;;0.50;0.50;;;;;;;8.59;69.15;96501.87;29394;219;64005;-55
2023/01/13 01:33:23;;;;;;;0.50;0.50;;;;;;;8.57;69.44;96514.88;29395;213;63009;-57
2023/01/13 01:33:54;;;;;;;0.50;0.50;;;;;;;8.60;69.55;96506.19;29394;250;64009;-55
2023/01/13 01:34:25;;;;;;;0.50;0.50;;;;;;;8.64;69.19;96509.13;29395;223;63009;-58
2023/01/13 01:34:57;;;;;;;0.50;0.50;;;;;;;8.70;69.14;96500.63;29394;223;64009;-55
2023/01/13 01:35:28;;;;;;;0.50;0.50;;;;;;;8.70;68.98;96508.75;29395;203;63009;-57
2023/01/13 01:36:01;;;;;;;0.50;0.50;;;;;;;8.70;68.82;96508.75;29395;210;63004;-55
2023/01/13 01:36:33;;;;;;;0.50;0.50;;;;;;;8.71;68.82;96509.56;29395;221;63009;-57
2023/01/13 01:37:07;;;;;;;0.50;0.50;;;;;;;8.68;68.87;96500.13;29395;223;63004;-56
2023/01/13 01:37:38;;;;;;;0.50;0.50;;;;;;;8.65;68.88;96508.84;29395;196;63008;-55
2023/01/13 01:38:09;;;;;;;0.50;0.50;;;;;;;8.61;69.19;96505.09;29395;223;63005;-56
2023/01/13 01:38:41;;;;;;;0.50;0.50;;;;;;;8.57;69.36;96504.06;29395;223;63009;-55
2023/01/13 01:39:13;;;;;;;0.50;0.50;;;;;;;8.54;69.39;96515.47;29395;210;63005;-57
2023/01/13 01:39:45;;;;;;;0.50;0.50;;;;;;;8.55;69.55;96511.66;29394;252;64013;-56
2023/01/13 01:40:17;;;;;;;0.50;0.50;;;;;;;8.56;69.48;96505.16;29395;220;63005;-56
2023/01/13 01:40:48;;;;;;;0.50;0.50;;;;;;;8.56;69.60;96507.06;29395;278;63009;-57
2023/01/13 01:41:23;;;;;;;0.50;0.50;;;;;;;8.56;69.57;96513.28;29395;261;63005;-55
2023/01/13 01:44:13;;;;;;;0.50;0.50;;;;;;;8.70;68.77;96510.66;29395;322;63009;-57
2023/01/13 01:45:00;;;;;;;0.50;0.50;;;;;;;8.69;69.62;96507.12;29394;308;64008;-56
2023/01/13 01:45:31;;;;;;;4.05;3.85;;;;;;;8.72;68.89;96506.56;29395;215;63008;-57
2023/01/13 01:46:04;;;;;;;0.60;0.60;;;;;;;8.74;69.18;96504.38;29395;213;63005;-55
2023/01/13 01:46:43;;;;;;;0.50;0.50;;;;;;;8.83;68.94;96506.44;29395;197;63009;-60
2023/01/13 01:47:19;;;;;;;0.50;0.50;;;;;;;8.83;68.59;96501.03;29395;202;63005;-55
2023/01/13 01:48:00;;;;;;;0.50;0.50;;;;;;;8.76;68.78;96495.16;29395;202;63009;-55
2023/01/13 01:48:37;;;;;;;;;;;;;;;8.69;68.90;96507.12;29996;983;6000;-55
2023/01/13 01:49:30;;;;;;;0.50;0.50;;;;;;;8.67;69.18;96497.69;29400;240;63005;-55
2023/01/13 01:50:03;;;;;;;0.50;0.50;;;;;;;8.68;69.89;96502.03;29394;251;64013;-55
2023/01/13 01:50:36;;;;;;;0.50;0.50;;;;;;;8.67;69.75;96495.00;29395;208;63004;-55
2023/01/13 01:51:12;;;;;;;0.50;0.50;;;;;;;8.64;69.61;96493.72;29395;203;63009;-55
2023/01/13 01:51:49;;;;;;;0.50;0.50;;;;;;;8.64;69.72;96493.72;29395;228;63004;-69
2023/01/13 01:52:30;;;;;;;0.50;0.50;;;;;;;8.69;69.46;96496.31;29395;226;63008;-55
2023/01/13 01:53:10;;;;;;;0.50;0.50;;;;;;;8.69;69.64;96496.31;29395;217;63004;-55
2023/01/13 01:53:42;;;;;;;0.50;0.50;;;;;;;8.68;69.76;96494.72;29395;220;63009;-56
2023/01/13 01:54:22;;;;;;;0.50;0.50;;;;;;;8.68;69.98;96485.78;29395;251;63005;-56
2023/01/13 01:55:09;;;;;;;0.50;0.50;;;;;;;8.64;69.87;96491.00;29417;258;63009;-54
2023/01/13 01:55:41;;;;;;;0.50;0.50;;;;;;;8.57;70.18;96485.13;29371;214;64009;-54
2023/01/13 01:56:18;;;;;;;0.50;0.50;;;;;;;8.52;70.73;96487.91;29395;300;63009;-54
2023/01/13 01:56:49;;;;;;;0.50;0.50;;;;;;;8.51;70.69;96489.00;29394;223;64009;-57
2023/01/13 01:57:42;;;;;;;0.50;0.50;;;;;;;8.52;70.54;96490.59;29395;242;63009;-55
2023/01/13 01:58:44;;;;;;;0.50;0.50;;;;;;;8.52;70.60;96479.78;29395;309;63015;-55
2023/01/13 01:59:19;;;;;;;0.60;0.60;;;;;;;8.52;71.10;96490.59;29417;292;63009;-61
2023/01/13 01:59:51;;;;;;;0.50;0.50;;;;;;;8.56;71.14;96490.84;29395;269;63004;-56
2023/01/13 02:00:26;;;;;;;0.50;0.50;;;;;;;8.58;71.05;96494.84;29395;208;63025;-56
2023/01/13 02:00:58;;;;;;;0.50;0.50;;;;;;;8.67;70.33;96493.09;29395;210;63005;-56
2023/01/13 02:01:32;;;;;;;0.50;0.50;;;;;;;8.64;70.45;96488.28;29395;324;63009;-55
2023/01/13 02:02:04;;;;;;;0.50;0.50;;;;;;;8.66;70.39;96491.50;29394;210;64009;-69
2023/01/13 02:02:36;;;;;;;0.50;0.50;;;;;;;8.71;70.27;96488.72;29395;275;63009;-60
2023/01/13 02:03:13;;;;;;;0.50;0.50;;;;;;;8.74;69.99;96479.22;29395;210;63005;-61
2023/01/13 02:03:58;;;;;;;0.60;0.60;;;;;;;8.80;69.79;96488.09;29395;264;63009;-59
2023/01/13 02:04:39;;;;;;;0.50;0.50;;;;;;;8.76;69.88;96487.03;29395;216;63004;-58
2023/01/13 02:05:11;;;;;;;0.60;0.60;;;;;;;8.72;69.86;96487.63;29417;242;63009;-57
2023/01/13 02:05:42;;;;;;;0.50;0.50;;;;;;;8.72;69.78;96492.22;29394;222;64009;-57
2023/01/13 02:06:15;;;;;;;0.50;0.50;;;;;;;8.68;69.68;96488.50;29395;202;63009;-55
2023/01/13 02:06:48;;;;;;;0.50;0.50;;;;;;;8.61;70.57;96496.19;29395;206;63004;-56
2023/01/13 02:07:25;;;;;;;0.50;0.50;;;;;;;8.60;70.61;96495.37;29395;250;63008;-64
2023/01/13 02:07:58;;;;;;;0.50;0.50;;;;;;;8.59;70.13;96488.34;29395;220;63004;-55
2023/01/13 02:08:29;;;;;;;0.50;0.50;;;;;;;8.58;70.52;96499.47;29395;229;63009;-58
2023/01/13 02:09:00;;;;;;;0.50;0.50;;;;;;;8.60;70.26;96498.06;29395;222;63005;-60
2023/01/13 02:09:33;;;;;;;0.50;0.50;;;;;;;8.69;70.13;96487.41;29395;221;63005;-60
2023/01/13 02:10:10;;;;;;;0.50;0.50;;;;;;;8.68;70.07;96489.28;29395;256;63005;-57
2023/01/13 02:10:44;;;;;;;0.50;0.50;;;;;;;8.68;70.41;96492.00;29394;208;64013;-58
2023/01/13 02:12:33;;;;;;;0.50;0.50;;;;;;;8.63;70.42;96492.09;29395;204;63009;-55
2023/01/13 02:13:07;;;;;;;0.50;0.50;;;;;;;8.58;70.61;96494.06;29395;259;63004;-59
2023/01/13 02:13:39;;;;;;;0.50;0.50;;;;;;;8.61;70.40;96491.56;29395;198;63009;-61
2023/01/13 02:14:10;;;;;;;0.50;0.50;;;;;;;8.67;70.33;96493.09;29395;242;63004;-59
2023/01/13 02:14:43;;;;;;;0.50;0.50;;;;;;;8.65;70.30;96500.72;29395;228;63008;-57
2023/01/13 02:15:20;;;;;;;0.50;0.50;;;;;;;8.60;70.72;96498.06;29395;209;63005;-57
2023/01/13 02:16:16;;;;;;;0.50;0.50;;;;;;;8.55;70.67;96489.22;29394;205;64014;-56
2023/01/13 02:16:59;;;;;;;0.50;0.50;;;;;;;8.53;70.59;96497.63;29395;274;63005;-57
2023/01/13 02:18:02;;;;;;;0.50;0.50;;;;;;;8.50;71.16;96487.37;29394;248;64013;-56
2023/01/13 02:19:28;;;;;;;0.50;0.50;;;;;;;8.56;70.99;96497.03;29395;224;63005;-60
2023/01/13 02:20:46;;;;;;;0.50;0.50;;;;;;;8.54;70.97;96488.41;29394;213;64013;-56
2023/01/13 02:21:51;;;;;;;0.50;0.50;;;;;;;8.49;71.32;96491.19;29394;215;64009;-58
2023/01/13 02:23:01;;;;;;;0.60;0.60;;;;;;;8.53;71.02;96491.41;29395;222;63008;-58
2023/01/13 02:26:00;;;;;;;0.50;0.50;;;;;;;8.67;70.13;96476.88;29394;199;64013;-57
2023/01/13 02:27:19;;;;;;;0.55;0.55;;;;;;;8.61;70.63;96472.66;29416;219;64009;-56
2023/01/13 02:28:31;;;;;;;0.50;0.50;;;;;;;8.59;70.66;96464.00;29394;220;64009;-56
2023/01/13 02:31:48;;;;;;;0.50;0.50;;;;;;;8.54;70.58;96474.91;29394;266;64009;-56
2023/01/13 02:32:34;;;;;;;0.50;0.50;;;;;;;8.49;70.83;96469.53;29395;199;63009;-61
2023/01/13 02:33:43;;;;;;;0.50;0.50;;;;;;;8.51;70.76;96470.06;29395;222;63005;-56
2023/01/13 02:34:32;;;;;;;0.50;0.50;;;;;;;8.54;70.78;96472.19;29395;227;63009;-56
2023/01/13 02:35:27;;;;;;;0.50;0.50;;;;;;;8.49;71.20;96466.03;29395;240;63004;-56
2023/01/13 02:36:15;;;;;;;0.50;0.50;;;;;;;8.46;71.01;96474.72;29395;226;63009;-56
2023/01/13 02:37:15;;;;;;;0.60;0.60;;;;;;;8.48;70.87;96467.94;29394;239;64008;-56
2023/01/13 02:37:49;;;;;;;0.50;0.50;;;;;;;8.55;70.39;96476.50;29395;221;63009;-57
2023/01/13 02:38:27;;;;;;;0.50;0.50;;;;;;;8.62;70.50;96458.03;29395;222;63005;-63
2023/01/13 02:39:37;;;;;;;0.50;0.50;;;;;;;8.62;70.56;96471.56;29395;212;63009;-58
2023/01/13 02:40:19;;;;;;;0.50;0.50;;;;;;;8.54;70.96;96466.78;29395;234;63005;-56
2023/01/13 02:44:05;;;;;;;0.50;0.50;;;;;;;8.48;70.88;96457.13;29395;225;63009;-56
2023/01/13 02:44:46;;;;;;;0.50;0.50;;;;;;;8.42;71.08;96447.47;29395;288;63004;-56
2023/01/13 02:45:29;;;;;;;0.60;0.60;;;;;;;8.37;71.29;96461.84;29417;217;63009;-56
2023/01/13 02:46:25;;;;;;;0.50;0.50;;;;;;;8.36;71.76;96459.44;29395;237;63005;-57
2023/01/13 02:47:05;;;;;;;0.50;0.50;;;;;;;8.39;71.58;96459.66;29394;201;64013;-57
2023/01/13 02:47:39;;;;;;;0.50;0.50;;;;;;;8.42;71.47;96460.97;29395;242;63005;-55
2023/01/13 02:48:14;;;;;;;0.50;0.50;;;;;;;8.46;71.06;96459.31;29395;211;63009;-56
2023/01/13 02:48:50;;;;;;;0.50;0.50;;;;;;;8.44;71.49;96461.50;29395;202;63004;-57
2023/01/13 02:49:56;;;;;;;0.60;0.60;;;;;;;8.52;70.68;96462.75;29395;222;63009;-58
2023/01/13 02:50:37;;;;;;;0.60;0.60;;;;;;;8.47;71.18;96460.12;29395;208;63004;-57
2023/01/13 02:51:14;;;;;;;0.50;0.50;;;;;;;8.47;71.01;96455.50;29395;221;63008;-59
2023/01/13 02:51:49;;;;;;;0.50;0.50;;;;;;;8.45;71.17;96460.41;29395;198;63004;-57
2023/01/13 02:52:42;;;;;;;0.60;0.60;;;;;;;8.44;71.28;96461.50;29394;253;64013;-56
2023/01/13 02:53:28;;;;;;;0.50;0.50;;;;;;;8.52;70.58;96466.25;29395;223;63005;-60
2023/01/13 02:54:33;;;;;;;0.50;0.50;;;;;;;8.53;70.84;96451.66;29395;221;63009;-56
2023/01/13 02:55:29;;;;;;;0.50;0.50;;;;;;;8.48;71.10;96457.13;29395;210;63005;-57
2023/01/13 02:56:03;;;;;;;0.50;0.50;;;;;;;8.41;71.00;96456.66;29395;218;63009;-56
2023/01/13 02:56:40;;;;;;;0.50;0.50;;;;;;;8.38;71.48;96455.34;29395;206;63008;-59
2023/01/13 02:57:16;;;;;;;0.50;0.50;;;;;;;8.49;71.07;96456.03;29395;209;63009;-60
2023/01/13 02:57:50;;;;;;;0.50;0.50;;;;;;;8.50;70.88;96454.94;29394;223;64009;-58
2023/01/13 02:58:26;;;;;;;0.70;0.70;;;;;;;8.54;70.84;96455.97;29395;211;63009;-59
2023/01/13 02:59:00;;;;;;;0.50;0.50;;;;;;;8.54;71.19;96439.75;29395;202;63004;-57
2023/01/13 02:59:33;;;;;;;0.60;0.60;;;;;;;8.47;71.54;96447.41;29395;211;63009;-57
2023/01/13 03:00:08;;;;;;;0.50;0.50;;;;;;;8.42;71.69;96452.88;29395;213;63005;-57
2023/01/13 03:00:40;;;;;;;0.50;0.50;;;;;;;8.48;71.53;96450.91;29395;271;63009;-58
2023/01/13 03:01:12;;;;;;;0.50;0.50;;;;;;;8.55;70.98;96454.88;29394;245;64009;-59
2023/01/13 03:01:44;;;;;;;0.50;0.50;;;;;;;8.60;70.89;96443.19;29395;214;63009;-58
2023/01/13 03:02:20;;;;;;;0.50;0.50;;;;;;;8.66;70.76;96445.50;29395;270;63005;-58
2023/01/13 03:02:52;;;;;;;0.50;0.50;;;;;;;8.67;70.68;96440.91;29395;209;63009;-57
2023/01/13 03:03:24;;;;;;;0.57;0.57;;;;;;;8.65;70.92;96437.72;29395;246;63005;-58
2023/01/13 03:03:55;;;;;;;0.50;0.50;;;;;;;8.65;70.89;96445.81;29395;357;63009;-57
2023/01/13 03:04:55;;;;;;;0.50;0.50;;;;;;;8.63;71.30;96443.41;29395;204;63004;-55
2023/01/13 03:05:28;;;;;;;0.50;0.50;;;;;;;8.65;71.01;96435.00;29394;210;64009;-58
2023/01/13 03:06:36;;;;;;;0.60;0.60;;;;;;;8.64;70.97;96444.22;29395;274;63009;-59